createdAt,value
2016-08-18T00:00:18.527Z,19
2016-08-18T00:01:17.767Z,18.99
2016-08-18T00:02:17.771Z,19.07
2016-08-18T00:03:17.782Z,19.04
2016-08-18T00:04:17.774Z,19.04
2016-08-18T00:05:17.783Z,19.07
2016-08-18T00:06:17.784Z,19.08
2016-08-18T00:07:17.787Z,19.15
2016-08-18T00:08:17.785Z,19.16
2016-08-18T00:09:17.783Z,19.11
2016-08-18T00:10:17.808Z,19.07
2016-08-18T00:11:17.788Z,19.18
2016-08-18T00:12:17.793Z,19.02
2016-08-18T00:13:17.798Z,19.16
2016-08-18T00:14:17.800Z,19.04
2016-08-18T00:15:17.810Z,19.07
2016-08-18T00:16:17.808Z,19.12
2016-08-18T00:17:17.803Z,19.09
2016-08-18T00:18:17.809Z,19.15
2016-08-18T00:19:17.810Z,19.04
2016-08-18T00:20:17.809Z,19.09
2016-08-18T00:21:17.813Z,19.08
2016-08-18T00:22:17.815Z,19.11
2016-08-18T00:23:17.826Z,19.04
2016-08-18T00:24:17.820Z,19.07
2016-08-18T00:25:18.594Z,19.02
2016-08-18T00:26:17.820Z,19.07
2016-08-18T00:27:17.826Z,19.02
2016-08-18T00:28:17.824Z,19.04
2016-08-18T00:29:17.829Z,18.93
2016-08-18T00:30:18.596Z,18.96
2016-08-18T00:31:17.832Z,18.95
2016-08-18T00:32:17.834Z,18.98
2016-08-18T00:33:17.837Z,18.95
2016-08-18T00:34:17.837Z,18.96
2016-08-18T00:35:17.841Z,18.96
2016-08-18T00:36:17.846Z,18.95
2016-08-18T00:37:17.847Z,19
2016-08-18T00:38:17.857Z,18.99
2016-08-18T00:39:17.852Z,19
2016-08-18T00:40:17.861Z,19.04
2016-08-18T00:41:17.863Z,19.07
2016-08-18T00:42:17.881Z,19.07
2016-08-18T00:43:17.862Z,19.07
2016-08-18T00:44:17.863Z,19.07
2016-08-18T00:45:18.634Z,19.08
2016-08-18T00:46:17.867Z,19.07
2016-08-18T00:47:17.873Z,19.02
2016-08-18T00:48:17.883Z,19.08
2016-08-18T00:49:18.584Z,19.04
2016-08-18T00:50:18.646Z,19.08
2016-08-18T00:51:17.886Z,19.07
2016-08-18T00:52:17.887Z,19.02
2016-08-18T00:53:17.885Z,19.07
2016-08-18T00:54:17.885Z,19.09
2016-08-18T00:55:18.654Z,19
2016-08-18T00:56:17.890Z,18.99
2016-08-18T00:57:17.886Z,18.99
2016-08-18T00:58:17.892Z,19.08
2016-08-18T00:59:17.891Z,19.09
2016-08-18T01:00:17.902Z,18.99
2016-08-18T01:01:17.899Z,18.98
2016-08-18T01:02:17.905Z,19
2016-08-18T01:03:17.905Z,19.07
2016-08-18T01:04:17.909Z,18.96
2016-08-18T01:05:17.973Z,18.93
2016-08-18T01:06:18.615Z,18.99
2016-08-18T01:07:17.910Z,18.92
2016-08-18T01:08:17.915Z,18.98
2016-08-18T01:09:17.918Z,18.93
2016-08-18T01:10:17.954Z,18.95
2016-08-18T01:11:17.922Z,18.92
2016-08-18T01:12:17.924Z,18.93
2016-08-18T01:13:17.936Z,18.92
2016-08-18T01:14:17.929Z,18.95
2016-08-18T01:15:18.008Z,18.95
2016-08-18T01:16:17.935Z,18.95
2016-08-18T01:17:17.956Z,18.92
2016-08-18T01:18:17.956Z,18.96
2016-08-18T01:19:17.959Z,18.95
2016-08-18T01:20:18.670Z,18.93
2016-08-18T01:21:17.958Z,18.9
2016-08-18T01:22:17.962Z,18.86
2016-08-18T01:23:17.957Z,18.84
2016-08-18T01:24:17.961Z,18.86
2016-08-18T01:25:18.673Z,18.84
2016-08-18T01:26:17.960Z,18.86
2016-08-18T01:27:17.984Z,18.86
2016-08-18T01:28:17.963Z,18.89
2016-08-18T01:29:17.981Z,18.86
2016-08-18T01:30:18.016Z,18.89
2016-08-18T01:31:17.983Z,18.81
2016-08-18T01:32:17.973Z,18.84
2016-08-18T01:33:17.969Z,18.93
2016-08-18T01:34:17.979Z,18.84
2016-08-18T01:35:17.987Z,18.81
2016-08-18T01:36:17.990Z,18.81
2016-08-18T01:37:17.983Z,18.92
2016-08-18T01:38:17.995Z,18.83
2016-08-18T01:39:17.999Z,18.84
2016-08-18T01:40:18.003Z,18.81
2016-08-18T01:41:18.044Z,18.81
2016-08-18T01:42:17.992Z,18.89
2016-08-18T01:43:17.997Z,18.83
2016-08-18T01:44:18.008Z,18.84
2016-08-18T01:45:18.787Z,18.74
2016-08-18T01:46:17.998Z,18.77
2016-08-18T01:47:18.020Z,18.74
2016-08-18T01:48:18.710Z,18.73
2016-08-18T01:49:18.046Z,18.77
2016-08-18T01:50:18.032Z,18.81
2016-08-18T01:51:18.059Z,18.73
2016-08-18T01:52:18.049Z,18.77
2016-08-18T01:53:18.029Z,18.7
2016-08-18T01:54:18.036Z,18.63
2016-08-18T01:55:18.050Z,18.59
2016-08-18T01:56:18.053Z,18.62
2016-08-18T01:57:18.035Z,18.62
2016-08-18T01:58:18.055Z,18.55
2016-08-18T01:59:18.036Z,18.56
2016-08-18T02:00:18.810Z,18.52
2016-08-18T02:01:18.034Z,18.55
2016-08-18T02:02:18.052Z,18.53
2016-08-18T02:03:18.054Z,18.58
2016-08-18T02:04:18.040Z,18.49
2016-08-18T02:05:18.064Z,18.52
2016-08-18T02:06:18.069Z,18.52
2016-08-18T02:07:18.067Z,18.55
2016-08-18T02:08:18.062Z,18.65
2016-08-18T02:09:18.060Z,18.53
2016-08-18T02:10:43.748Z,18.47
2016-08-18T02:11:18.064Z,18.47
2016-08-18T02:12:18.066Z,18.35
2016-08-18T02:13:18.074Z,18.38
2016-08-18T02:14:18.078Z,18.35
2016-08-18T02:15:18.068Z,18.28
2016-08-18T02:16:18.101Z,18.26
2016-08-18T02:17:18.071Z,18.23
2016-08-18T02:18:18.067Z,18.2
2016-08-18T02:19:18.076Z,18.18
2016-08-18T02:20:18.086Z,18.11
2016-08-18T02:21:18.076Z,18.15
2016-08-18T02:22:18.071Z,18.13
2016-08-18T02:23:18.093Z,18.01
2016-08-18T02:24:18.103Z,18.07
2016-08-18T02:25:18.105Z,18.08
2016-08-18T02:26:18.101Z,18.03
2016-08-18T02:27:18.793Z,18.05
2016-08-18T02:28:18.102Z,17.92
2016-08-18T02:29:18.096Z,17.89
2016-08-18T02:30:18.806Z,17.92
2016-08-18T02:31:18.092Z,17.92
2016-08-18T02:32:18.097Z,17.94
2016-08-18T02:33:18.117Z,17.95
2016-08-18T02:34:18.101Z,17.92
2016-08-18T02:35:18.119Z,17.94
2016-08-18T02:36:18.135Z,17.94
2016-08-18T02:37:18.120Z,17.78
2016-08-18T02:38:18.120Z,17.79
2016-08-18T02:39:18.131Z,17.79
2016-08-18T02:40:18.123Z,17.8
2016-08-18T02:41:18.131Z,17.74
2016-08-18T02:42:18.130Z,17.78
2016-08-18T02:43:18.154Z,17.8
2016-08-18T02:44:18.124Z,17.71
2016-08-18T02:45:18.125Z,17.67
2016-08-18T02:46:18.139Z,17.65
2016-08-18T02:47:18.142Z,17.67
2016-08-18T02:48:18.143Z,17.65
2016-08-18T02:49:18.147Z,17.52
2016-08-18T02:50:18.145Z,17.59
2016-08-18T02:51:18.166Z,17.46
2016-08-18T02:52:18.153Z,17.51
2016-08-18T02:53:18.128Z,17.38
2016-08-18T02:54:18.151Z,17.41
2016-08-18T02:55:18.141Z,17.31
2016-08-18T02:56:18.145Z,17.38
2016-08-18T02:57:18.152Z,17.36
2016-08-18T02:58:18.162Z,17.44
2016-08-18T02:59:18.172Z,17.45
2016-08-18T03:00:18.157Z,17.33
2016-08-18T03:01:18.155Z,17.31
2016-08-18T03:02:18.147Z,17.22
2016-08-18T03:03:18.159Z,17.16
2016-08-18T03:04:18.153Z,17.29
2016-08-18T03:05:18.180Z,17.22
2016-08-18T03:06:18.183Z,17.15
2016-08-18T03:07:18.171Z,17.22
2016-08-18T03:08:18.162Z,17.11
2016-08-18T03:09:18.159Z,17.16
2016-08-18T03:10:18.160Z,17.12
2016-08-18T03:11:18.185Z,17.19
2016-08-18T03:12:18.179Z,17.15
2016-08-18T03:13:18.871Z,17.14
2016-08-18T03:14:18.163Z,17.02
2016-08-18T03:15:18.177Z,17.06
2016-08-18T03:16:18.169Z,17.06
2016-08-18T03:17:18.173Z,17.01
2016-08-18T03:18:18.188Z,17.04
2016-08-18T03:19:18.173Z,16.94
2016-08-18T03:20:18.192Z,16.93
2016-08-18T03:21:18.177Z,16.93
2016-08-18T03:22:18.192Z,16.97
2016-08-18T03:23:18.187Z,16.97
2016-08-18T03:24:18.198Z,16.93
2016-08-18T03:25:18.190Z,16.97
2016-08-18T03:26:18.188Z,16.9
2016-08-18T03:27:18.185Z,16.81
2016-08-18T03:28:18.205Z,16.83
2016-08-18T03:29:18.203Z,16.78
2016-08-18T03:30:18.202Z,16.87
2016-08-18T03:31:18.901Z,16.9
2016-08-18T03:32:18.208Z,16.86
2016-08-18T03:33:18.204Z,16.78
2016-08-18T03:34:18.208Z,16.79
2016-08-18T03:35:18.210Z,16.78
2016-08-18T03:36:18.208Z,16.71
2016-08-18T03:37:18.201Z,16.68
2016-08-18T03:38:18.209Z,16.68
2016-08-18T03:39:18.211Z,16.65
2016-08-18T03:40:18.214Z,16.69
2016-08-18T03:41:18.209Z,16.68
2016-08-18T03:42:18.208Z,16.64
2016-08-18T03:43:18.216Z,16.69
2016-08-18T03:44:18.947Z,16.66
2016-08-18T03:45:18.217Z,16.69
2016-08-18T03:46:18.219Z,16.54
2016-08-18T03:47:18.215Z,16.57
2016-08-18T03:48:18.217Z,16.58
2016-08-18T03:49:18.216Z,16.53
2016-08-18T03:50:18.244Z,16.64
2016-08-18T03:51:18.222Z,16.57
2016-08-18T03:52:18.247Z,16.58
2016-08-18T03:53:18.246Z,16.64
2016-08-18T03:54:18.234Z,16.64
2016-08-18T03:55:18.248Z,16.6
2016-08-18T03:56:18.224Z,16.54
2016-08-18T03:57:18.250Z,16.54
2016-08-18T03:58:18.251Z,16.49
2016-08-18T03:59:18.236Z,16.56
2016-08-18T04:00:18.237Z,16.43
2016-08-18T04:01:18.235Z,16.46
2016-08-18T04:02:18.248Z,16.35
2016-08-18T04:03:18.252Z,16.28
2016-08-18T04:04:18.227Z,16.32
2016-08-18T04:05:18.254Z,16.26
2016-08-18T04:06:18.254Z,16.32
2016-08-18T04:07:18.255Z,16.28
2016-08-18T04:08:18.255Z,16.29
2016-08-18T04:09:18.256Z,16.15
2016-08-18T04:10:18.269Z,16.2
2016-08-18T04:11:18.257Z,16.21
2016-08-18T04:12:18.259Z,16.13
2016-08-18T04:13:18.269Z,16.15
2016-08-18T04:14:18.260Z,16.23
2016-08-18T04:15:18.262Z,16.24
2016-08-18T04:16:18.268Z,16.21
2016-08-18T04:17:18.258Z,16.28
2016-08-18T04:18:18.274Z,16.12
2016-08-18T04:19:18.290Z,16.15
2016-08-18T04:20:18.276Z,16.16
2016-08-18T04:21:18.263Z,16.2
2016-08-18T04:22:18.276Z,16.15
2016-08-18T04:23:18.951Z,16.2
2016-08-18T04:24:18.273Z,16.15
2016-08-18T04:25:18.263Z,16.01
2016-08-18T04:26:18.266Z,16
2016-08-18T04:27:18.278Z,16.08
2016-08-18T04:28:18.264Z,16.05
2016-08-18T04:29:18.267Z,16.08
2016-08-18T04:30:18.277Z,16.04
2016-08-18T04:31:18.269Z,16.01
2016-08-18T04:32:18.277Z,16.02
2016-08-18T04:33:18.991Z,16.04
2016-08-18T04:34:18.984Z,16.08
2016-08-18T04:35:18.283Z,16.08
2016-08-18T04:36:18.285Z,16.09
2016-08-18T04:37:18.257Z,16.09
2016-08-18T04:38:18.269Z,16.1
2016-08-18T04:39:18.284Z,16.16
2016-08-18T04:40:18.272Z,16.24
2016-08-18T04:41:18.272Z,16.28
2016-08-18T04:42:18.278Z,16.23
2016-08-18T04:43:18.281Z,16.26
2016-08-18T04:44:18.280Z,16.31
2016-08-18T04:45:18.286Z,16.32
2016-08-18T04:46:18.979Z,16.31
2016-08-18T04:47:18.285Z,16.38
2016-08-18T04:48:18.285Z,16.42
2016-08-18T04:49:18.289Z,16.51
2016-08-18T04:50:18.285Z,16.71
2016-08-18T04:51:18.279Z,16.76
2016-08-18T04:52:18.304Z,16.97
2016-08-18T04:53:18.291Z,17.16
2016-08-18T04:54:18.294Z,17.39
2016-08-18T04:55:18.291Z,17.59
2016-08-18T04:56:18.288Z,17.82
2016-08-18T04:57:18.294Z,18.11
2016-08-18T04:58:18.302Z,18.29
2016-08-18T04:59:18.298Z,18.5
2016-08-18T05:00:18.991Z,18.71
2016-08-18T05:01:18.308Z,18.84
2016-08-18T05:02:18.318Z,19.07
2016-08-18T05:03:18.308Z,19.21
2016-08-18T05:04:18.304Z,19.31
2016-08-18T05:05:18.306Z,19.36
2016-08-18T05:06:18.327Z,19.51
2016-08-18T05:07:18.310Z,19.69
2016-08-18T05:08:18.313Z,19.74
2016-08-18T05:09:18.311Z,19.85
2016-08-18T05:10:18.330Z,20.02
2016-08-18T05:11:19.046Z,20.06
2016-08-18T05:12:18.331Z,20.32
2016-08-18T05:13:18.351Z,20.37
2016-08-18T05:14:18.349Z,20.55
2016-08-18T05:15:18.372Z,20.69
2016-08-18T05:16:18.361Z,20.96
2016-08-18T05:17:18.359Z,21.12
2016-08-18T05:18:18.348Z,21.27
2016-08-18T05:19:18.356Z,21.43
2016-08-18T05:20:18.365Z,21.48
2016-08-18T05:21:18.369Z,21.43
2016-08-18T05:22:18.378Z,21.36
2016-08-18T05:23:18.370Z,21.37
2016-08-18T05:24:18.384Z,21.35
2016-08-18T05:25:18.377Z,21.18
2016-08-18T05:26:18.385Z,21.15
2016-08-18T05:27:18.377Z,21.06
2016-08-18T05:28:19.093Z,21.03
2016-08-18T05:29:18.393Z,21
2016-08-18T05:30:18.395Z,21.07
2016-08-18T05:31:18.405Z,20.99
2016-08-18T05:32:18.392Z,20.88
2016-08-18T05:33:18.390Z,20.9
2016-08-18T05:34:18.417Z,20.7
2016-08-18T05:35:18.401Z,20.65
2016-08-18T05:36:18.415Z,20.55
2016-08-18T05:37:18.415Z,20.55
2016-08-18T05:38:18.423Z,20.51
2016-08-18T05:39:18.424Z,20.67
2016-08-18T05:40:18.450Z,20.62
2016-08-18T05:41:18.415Z,20.7
2016-08-18T05:42:18.432Z,20.69
2016-08-18T05:43:18.433Z,20.67
2016-08-18T05:44:18.437Z,20.72
2016-08-18T05:45:18.439Z,20.77
2016-08-18T05:46:18.458Z,20.95
2016-08-18T05:47:18.441Z,21.33
2016-08-18T05:48:18.443Z,21.58
2016-08-18T05:49:18.448Z,21.93
2016-08-18T05:50:18.463Z,22.1
2016-08-18T05:51:18.451Z,22.13
2016-08-18T05:52:18.468Z,22.11
2016-08-18T05:53:19.415Z,22.1
2016-08-18T05:54:23.771Z,22
2016-08-18T05:55:18.468Z,21.93
2016-08-18T05:56:18.475Z,21.72
2016-08-18T05:57:18.477Z,21.55
2016-08-18T05:58:18.480Z,21.36
2016-08-18T05:59:18.484Z,21.4
2016-08-18T06:00:18.490Z,21.21
2016-08-18T06:01:18.502Z,21
2016-08-18T06:02:18.495Z,21.03
2016-08-18T06:03:18.501Z,21.11
2016-08-18T06:04:18.506Z,21.12
2016-08-18T06:05:18.509Z,20.99
2016-08-18T06:06:18.510Z,20.96
2016-08-18T06:07:18.521Z,20.93
2016-08-18T06:08:18.520Z,20.84
2016-08-18T06:09:18.522Z,20.84
2016-08-18T06:10:18.528Z,20.92
2016-08-18T06:11:18.537Z,20.81
2016-08-18T06:12:20.073Z,20.84
2016-08-18T06:13:18.536Z,20.82
2016-08-18T06:14:19.264Z,20.72
2016-08-18T06:15:18.544Z,20.75
2016-08-18T06:16:18.548Z,20.58
2016-08-18T06:17:18.555Z,20.37
2016-08-18T06:18:19.262Z,20.28
2016-08-18T06:19:18.570Z,20.04
2016-08-18T06:20:18.563Z,20.18
2016-08-18T06:21:18.572Z,20.32
2016-08-18T06:22:18.572Z,20.75
2016-08-18T06:23:18.580Z,21.11
2016-08-18T06:24:19.125Z,21.32
2016-08-18T06:25:19.031Z,21.39
2016-08-18T06:26:18.584Z,21.48
2016-08-18T06:27:18.584Z,21.76
2016-08-18T06:28:18.589Z,21.98
2016-08-18T06:29:18.595Z,22.2
2016-08-18T06:30:18.598Z,22.53
2016-08-18T06:31:18.611Z,22.73
2016-08-18T06:32:18.606Z,22.88
2016-08-18T06:33:18.613Z,23.03
2016-08-18T06:34:18.652Z,22.85
2016-08-18T06:35:19.208Z,22.85
2016-08-18T06:36:18.630Z,22.75
2016-08-18T06:37:18.644Z,22.83
2016-08-18T06:38:18.639Z,22.94
2016-08-18T06:39:18.640Z,23.21
2016-08-18T06:40:18.810Z,23.78
2016-08-18T06:41:18.676Z,24.33
2016-08-18T06:42:18.673Z,24.93
2016-08-18T06:43:18.669Z,25.21
2016-08-18T06:44:18.667Z,25.21
2016-08-18T06:45:18.681Z,25.06
2016-08-18T06:46:18.687Z,24.74
2016-08-18T06:47:18.684Z,24.63
2016-08-18T06:48:19.429Z,24.5
2016-08-18T06:49:18.692Z,24.1
2016-08-18T06:50:18.715Z,23.92
2016-08-18T06:51:18.705Z,23.73
2016-08-18T06:52:18.710Z,23.63
2016-08-18T06:53:18.724Z,23.8
2016-08-18T06:54:18.721Z,23.83
2016-08-18T06:55:18.749Z,23.71
2016-08-18T06:56:18.734Z,23.62
2016-08-18T06:57:18.764Z,23.58
2016-08-18T06:58:18.755Z,23.44
2016-08-18T06:59:18.748Z,23.37
2016-08-18T07:00:18.753Z,23.37
2016-08-18T07:01:18.769Z,23.13
2016-08-18T07:02:18.768Z,22.83
2016-08-18T07:03:18.769Z,22.55
2016-08-18T07:04:18.773Z,22.28
2016-08-18T07:05:18.781Z,22.22
2016-08-18T07:06:18.789Z,22
2016-08-18T07:07:18.785Z,21.83
2016-08-18T07:08:19.494Z,21.6
2016-08-18T07:09:19.520Z,21.48
2016-08-18T07:10:18.796Z,21.39
2016-08-18T07:11:18.805Z,21.29
2016-08-18T07:12:18.805Z,21.25
2016-08-18T07:13:18.805Z,21.42
2016-08-18T07:14:18.812Z,21.73
2016-08-18T07:15:18.817Z,21.88
2016-08-18T07:16:18.821Z,22.18
2016-08-18T07:17:18.839Z,22.3
2016-08-18T07:18:18.836Z,22.5
2016-08-18T07:19:18.837Z,22.69
2016-08-18T07:20:18.963Z,22.81
2016-08-18T07:21:18.857Z,22.87
2016-08-18T07:22:18.852Z,22.91
2016-08-18T07:23:18.858Z,23.18
2016-08-18T07:24:18.857Z,23.44
2016-08-18T07:25:18.857Z,23.86
2016-08-18T07:26:18.912Z,24.11
2016-08-18T07:27:18.866Z,24.32
2016-08-18T07:28:18.885Z,24.51
2016-08-18T07:29:18.876Z,24.39
2016-08-18T07:30:18.881Z,24.33
2016-08-18T07:31:18.884Z,24.42
2016-08-18T07:32:18.921Z,24.47
2016-08-18T07:33:18.918Z,24.5
2016-08-18T07:34:18.918Z,24.74
2016-08-18T07:35:18.944Z,24.68
2016-08-18T07:36:19.501Z,24.73
2016-08-18T07:37:18.919Z,24.63
2016-08-18T07:38:18.924Z,24.65
2016-08-18T07:39:18.927Z,24.51
2016-08-18T07:40:18.960Z,24.57
2016-08-18T07:41:19.745Z,24.6
2016-08-18T07:42:18.951Z,24.58
2016-08-18T07:43:18.973Z,24.47
2016-08-18T07:44:18.950Z,24.6
2016-08-18T07:45:18.975Z,24.69
2016-08-18T07:46:19.699Z,24.78
2016-08-18T07:47:18.977Z,24.88
2016-08-18T07:48:18.980Z,25.14
2016-08-18T07:49:18.980Z,25.22
2016-08-18T07:50:18.988Z,25.55
2016-08-18T07:51:19.095Z,25.65
2016-08-18T07:52:19.000Z,25.6
2016-08-18T07:53:19.014Z,25.53
2016-08-18T07:54:19.005Z,25.32
2016-08-18T07:55:19.771Z,25.36
2016-08-18T07:56:19.016Z,25.63
2016-08-18T07:57:19.016Z,25.95
2016-08-18T07:58:19.034Z,26.56
2016-08-18T07:59:19.039Z,26.88
2016-08-18T08:00:19.066Z,27.36
2016-08-18T08:01:19.756Z,27.6
2016-08-18T08:02:19.051Z,27.86
2016-08-18T08:03:19.057Z,28.29
2016-08-18T08:04:19.064Z,28.64
2016-08-18T08:05:19.075Z,28.76
2016-08-18T08:06:19.081Z,28.82
2016-08-18T08:07:19.085Z,28.78
2016-08-18T08:08:19.098Z,29.08
2016-08-18T08:09:19.110Z,29.41
2016-08-18T08:10:19.167Z,29.42
2016-08-18T08:11:19.110Z,29.27
2016-08-18T08:12:19.839Z,28.94
2016-08-18T08:13:19.136Z,28.52
2016-08-18T08:14:19.134Z,28.22
2016-08-18T08:15:19.472Z,28.25
2016-08-18T08:16:19.170Z,28.3
2016-08-18T08:17:19.166Z,28.51
2016-08-18T08:18:19.168Z,28.93
2016-08-18T08:19:19.182Z,29.02
2016-08-18T08:20:20.343Z,29.19
2016-08-18T08:21:19.196Z,29.39
2016-08-18T08:22:19.196Z,29.38
2016-08-18T08:23:19.204Z,29.65
2016-08-18T08:24:19.220Z,29.9
2016-08-18T08:25:19.223Z,30.03
2016-08-18T08:26:19.224Z,29.95
2016-08-18T08:27:19.234Z,29.72
2016-08-18T08:28:19.250Z,29.29
2016-08-18T08:29:19.252Z,28.94
2016-08-18T08:30:19.402Z,28.6
2016-08-18T08:31:19.271Z,28.26
2016-08-18T08:32:19.279Z,28.07
2016-08-18T08:33:19.294Z,27.75
2016-08-18T08:34:19.536Z,27.86
2016-08-18T08:35:22.589Z,27.98
2016-08-18T08:36:19.300Z,27.77
2016-08-18T08:37:19.326Z,27.47
2016-08-18T08:38:19.334Z,27.36
2016-08-18T08:39:20.187Z,27.33
2016-08-18T08:40:22.636Z,27.15
2016-08-18T08:41:19.408Z,27.12
2016-08-18T08:42:19.345Z,27.08
2016-08-18T08:43:19.354Z,26.95
2016-08-18T08:44:19.354Z,27
2016-08-18T08:45:19.358Z,26.95
2016-08-18T08:46:19.367Z,26.68
2016-08-18T08:47:19.371Z,26.36
2016-08-18T08:48:19.389Z,26.09
2016-08-18T08:49:19.401Z,25.93
2016-08-18T08:50:21.206Z,25.68
2016-08-18T08:51:19.403Z,25.59
2016-08-18T08:52:19.405Z,25.53
2016-08-18T08:53:19.414Z,25.55
2016-08-18T08:54:21.714Z,25.47
2016-08-18T08:55:22.666Z,25.65
2016-08-18T08:56:21.817Z,25.83
2016-08-18T08:57:19.435Z,25.98
2016-08-18T08:58:20.373Z,25.96
2016-08-18T08:59:19.505Z,25.88
2016-08-18T09:00:22.840Z,25.84
2016-08-18T09:01:19.459Z,25.73
2016-08-18T09:02:23.058Z,25.84
2016-08-18T09:03:19.470Z,25.75
2016-08-18T09:04:19.477Z,25.66
2016-08-18T09:05:19.490Z,25.58
2016-08-18T09:06:19.492Z,25.32
2016-08-18T09:07:19.493Z,25.32
2016-08-18T09:08:19.500Z,25.32
2016-08-18T09:09:19.539Z,25.31
2016-08-18T09:10:19.513Z,25.23
2016-08-18T09:11:19.517Z,25.35
2016-08-18T09:12:19.522Z,25.48
2016-08-18T09:13:19.532Z,25.44
2016-08-18T09:14:19.539Z,25.63
2016-08-18T09:15:19.617Z,25.62
2016-08-18T09:16:19.619Z,25.68
2016-08-18T09:17:19.549Z,25.68
2016-08-18T09:18:19.552Z,25.75
2016-08-18T09:19:19.579Z,25.91
2016-08-18T09:20:20.070Z,26.02
2016-08-18T09:21:19.587Z,26.07
2016-08-18T09:22:19.578Z,26.25
2016-08-18T09:23:19.583Z,26.36
2016-08-18T09:24:19.591Z,26.55
2016-08-18T09:25:20.758Z,26.59
2016-08-18T09:26:19.621Z,26.71
2016-08-18T09:27:19.613Z,26.7
2016-08-18T09:28:20.431Z,26.65
2016-08-18T09:29:19.641Z,26.59
2016-08-18T09:30:20.898Z,26.56
2016-08-18T09:31:19.631Z,26.56
2016-08-18T09:32:19.640Z,26.56
2016-08-18T09:33:19.646Z,26.37
2016-08-18T09:34:20.424Z,26.52
2016-08-18T09:35:19.849Z,26.45
2016-08-18T09:36:19.688Z,26.51
2016-08-18T09:37:20.503Z,26.51
2016-08-18T09:38:19.699Z,26.38
2016-08-18T09:39:19.685Z,26.25
2016-08-18T09:40:20.611Z,26.16
2016-08-18T09:41:19.711Z,26.16
2016-08-18T09:42:19.697Z,26.26
2016-08-18T09:43:19.722Z,26.47
2016-08-18T09:44:19.707Z,26.51
2016-08-18T09:45:19.921Z,26.44
2016-08-18T09:46:19.718Z,26.45
2016-08-18T09:47:19.721Z,26.44
2016-08-18T09:48:19.762Z,26.47
2016-08-18T09:49:19.738Z,26.48
2016-08-18T09:50:21.341Z,26.47
2016-08-18T09:51:20.500Z,26.51
2016-08-18T09:52:20.499Z,26.41
2016-08-18T09:53:19.897Z,26.45
2016-08-18T09:54:19.763Z,26.41
2016-08-18T09:55:20.695Z,26.58
2016-08-18T09:56:19.780Z,26.68
2016-08-18T09:57:19.889Z,26.63
2016-08-18T09:58:19.792Z,26.73
2016-08-18T09:59:20.509Z,26.78
2016-08-18T10:00:19.957Z,26.88
2016-08-18T10:01:19.806Z,26.84
2016-08-18T10:02:19.842Z,26.88
2016-08-18T10:03:19.815Z,26.81
2016-08-18T10:04:19.825Z,26.63
2016-08-18T10:05:20.639Z,26.43
2016-08-18T10:06:19.861Z,26.29
2016-08-18T10:07:19.856Z,26.26
2016-08-18T10:08:19.849Z,26.26
2016-08-18T10:09:19.871Z,26.13
2016-08-18T10:10:45.551Z,26.07
2016-08-18T10:11:19.862Z,26.07
2016-08-18T10:12:20.579Z,26.16
2016-08-18T10:13:19.897Z,26.22
2016-08-18T10:14:19.902Z,26.25
2016-08-18T10:15:20.674Z,26.22
2016-08-18T10:16:19.898Z,26.34
2016-08-18T10:17:19.902Z,26.37
2016-08-18T10:18:19.913Z,26.33
2016-08-18T10:19:19.904Z,26.48
2016-08-18T10:20:19.925Z,26.62
2016-08-18T10:21:19.918Z,26.56
2016-08-18T10:22:19.930Z,26.77
2016-08-18T10:23:20.640Z,26.66
2016-08-18T10:24:19.939Z,26.71
2016-08-18T10:25:20.110Z,26.68
2016-08-18T10:26:19.961Z,26.74
2016-08-18T10:27:19.961Z,26.85
2016-08-18T10:28:19.962Z,26.92
2016-08-18T10:29:19.966Z,26.92
2016-08-18T10:30:21.113Z,27.05
2016-08-18T10:31:19.981Z,26.96
2016-08-18T10:32:19.979Z,26.97
2016-08-18T10:33:19.990Z,27.11
2016-08-18T10:34:19.996Z,27.1
2016-08-18T10:35:20.758Z,27.08
2016-08-18T10:36:20.005Z,27.08
2016-08-18T10:37:20.023Z,27.14
2016-08-18T10:38:20.019Z,27.1
2016-08-18T10:39:20.021Z,26.99
2016-08-18T10:40:20.803Z,27.15
2016-08-18T10:41:20.041Z,27.18
2016-08-18T10:42:20.038Z,27.33
2016-08-18T10:43:20.043Z,27.27
2016-08-18T10:44:20.058Z,27.3
2016-08-18T10:45:20.831Z,27.36
2016-08-18T10:46:20.060Z,27.39
2016-08-18T10:47:20.066Z,27.55
2016-08-18T10:48:20.096Z,27.51
2016-08-18T10:49:20.098Z,27.45
2016-08-18T10:50:20.116Z,27.52
2016-08-18T10:51:20.119Z,27.4
2016-08-18T10:52:20.097Z,27.35
2016-08-18T10:53:20.130Z,27.17
2016-08-18T10:54:20.120Z,27.05
2016-08-18T10:55:20.201Z,26.84
2016-08-18T10:56:20.122Z,26.89
2016-08-18T10:57:20.126Z,26.8
2016-08-18T10:58:20.133Z,26.71
2016-08-18T10:59:20.136Z,26.55
2016-08-18T11:00:20.166Z,26.34
2016-08-18T11:01:20.161Z,26.07
2016-08-18T11:02:20.866Z,26.09
2016-08-18T11:03:20.166Z,25.99
2016-08-18T11:04:20.895Z,25.98
2016-08-18T11:05:20.186Z,26.25
2016-08-18T11:06:20.197Z,26.47
2016-08-18T11:07:20.185Z,26.68
2016-08-18T11:08:21.627Z,26.84
2016-08-18T11:09:20.197Z,27.05
2016-08-18T11:10:20.204Z,27.27
2016-08-18T11:11:20.927Z,27.36
2016-08-18T11:12:20.216Z,27.55
2016-08-18T11:13:20.227Z,27.65
2016-08-18T11:14:20.246Z,27.55
2016-08-18T11:15:20.245Z,27.52
2016-08-18T11:16:20.250Z,27.51
2016-08-18T11:17:20.256Z,27.54
2016-08-18T11:18:20.264Z,27.6
2016-08-18T11:19:20.259Z,27.75
2016-08-18T11:20:20.531Z,27.85
2016-08-18T11:21:20.273Z,27.85
2016-08-18T11:22:20.309Z,27.95
2016-08-18T11:23:20.281Z,28.07
2016-08-18T11:24:20.290Z,28.02
2016-08-18T11:25:20.385Z,27.92
2016-08-18T11:26:20.304Z,27.86
2016-08-18T11:27:20.330Z,27.75
2016-08-18T11:28:20.328Z,27.63
2016-08-18T11:29:20.421Z,27.49
2016-08-18T11:30:21.035Z,27.63
2016-08-18T11:31:20.338Z,27.8
2016-08-18T11:32:20.349Z,27.89
2016-08-18T11:33:20.351Z,28.07
2016-08-18T11:34:20.361Z,28.04
2016-08-18T11:35:21.039Z,27.89
2016-08-18T11:36:20.390Z,27.75
2016-08-18T11:37:20.397Z,27.55
2016-08-18T11:38:20.417Z,27.39
2016-08-18T11:39:20.394Z,27.2
2016-08-18T11:40:20.400Z,27.07
2016-08-18T11:41:20.427Z,27
2016-08-18T11:42:20.407Z,26.96
2016-08-18T11:43:20.419Z,26.95
2016-08-18T11:44:20.498Z,27.08
2016-08-18T11:45:21.861Z,27.37
2016-08-18T11:46:20.446Z,27.49
2016-08-18T11:47:20.450Z,27.51
2016-08-18T11:48:20.466Z,27.48
2016-08-18T11:49:20.458Z,27.4
2016-08-18T11:50:20.988Z,27.55
2016-08-18T11:51:20.481Z,27.55
2016-08-18T11:52:20.491Z,27.74
2016-08-18T11:53:20.500Z,27.82
2016-08-18T11:54:20.484Z,28.04
2016-08-18T11:55:20.782Z,28.17
2016-08-18T11:56:20.501Z,28.22
2016-08-18T12:11:59.853Z,27
2016-08-18T12:12:59.854Z,26.99
2016-08-18T12:13:59.868Z,26.83
2016-08-18T12:15:00.472Z,26.81
2016-08-18T12:16:00.478Z,26.71
2016-08-18T12:17:00.492Z,26.56
2016-08-18T12:18:00.495Z,26.53
2016-08-18T12:19:00.500Z,26.52
2016-08-18T12:20:00.502Z,26.47
2016-08-18T12:21:00.499Z,26.44
2016-08-18T12:22:00.510Z,26.4
2016-08-18T12:23:00.507Z,26.28
2016-08-18T12:24:00.531Z,26.18
2016-08-18T12:25:00.522Z,26.09
2016-08-18T12:26:00.532Z,26.05
2016-08-18T12:27:00.549Z,25.93
2016-08-18T12:28:01.248Z,25.84
2016-08-18T12:29:00.542Z,25.83
2016-08-18T12:30:00.557Z,25.84
2016-08-18T12:31:00.564Z,25.85
2016-08-18T12:32:00.560Z,25.85
2016-08-18T12:33:00.562Z,25.83
2016-08-18T12:34:00.573Z,25.81
2016-08-18T12:35:00.569Z,25.96
2016-08-18T12:36:00.570Z,25.91
2016-08-18T12:37:00.579Z,25.98
2016-08-18T12:38:00.580Z,25.95
2016-08-18T12:39:00.588Z,25.96
2016-08-18T12:40:00.592Z,25.9
2016-08-18T12:41:00.603Z,25.95
2016-08-18T12:42:01.305Z,25.93
2016-08-18T12:43:00.615Z,25.95
2016-08-18T12:44:00.614Z,25.95
2016-08-18T12:45:00.612Z,25.93
2016-08-18T12:46:00.620Z,25.95
2016-08-18T12:47:00.627Z,25.99
2016-08-18T12:48:00.645Z,25.99
2016-08-18T12:49:00.633Z,25.95
2016-08-18T12:50:00.647Z,25.95
2016-08-18T12:51:00.645Z,26.06
2016-08-18T12:52:00.646Z,26.19
2016-08-18T12:53:00.654Z,26.25
2016-08-18T12:54:00.667Z,26.23
2016-08-18T12:55:00.668Z,26.28
2016-08-18T12:56:00.679Z,26.28
2016-08-18T12:57:00.675Z,26.38
2016-08-18T12:58:00.834Z,26.31
2016-08-18T12:59:00.685Z,26.22
2016-08-18T13:00:00.688Z,26.28
2016-08-18T13:01:00.697Z,26.21
2016-08-18T13:02:00.698Z,26.23
2016-08-18T13:03:00.712Z,26.15
2016-08-18T13:04:00.751Z,26.1
2016-08-18T13:05:00.715Z,26.03
2016-08-18T13:06:00.725Z,26.15
2016-08-18T13:07:00.726Z,26.4
2016-08-18T13:08:00.732Z,26.53
2016-08-18T13:09:00.734Z,26.6
2016-08-18T13:10:01.457Z,26.58